This is the latest recevied weather packets stored in our database for station/object DJ0JJ-11. If no packets are shown the sender has not sent any weather packets the latest 10 day(s).
| Time | Temp. | Humidity | Pressure | Rain* | Wind** | Luminosity | Snow |
|---|---|---|---|---|---|---|---|
| 1787962832 | 18.33° C | 84% | 1019 hPa | - | - | - | - |
| 1787961931 | 18.89° C | 80% | 1018.9 hPa | - | - | - | - |
| 1787961031 | 18.33° C | 83% | 1019 hPa | - | - | - | - |
| 1787960131 | 18.89° C | 80% | 1019.1 hPa | - | - | - | - |
| 1787959231 | 18.89° C | 80% | 1019 hPa | - | - | - | - |
| 1787958331 | 19.44° C | 79% | 1018.9 hPa | - | - | - | - |
| 1787957431 | 19.44° C | 79% | 1018.8 hPa | - | - | - | - |
| 1787956531 | 21.67° C | 69% | 1018.8 hPa | - | - | - | - |
| 1787955631 | 21.67° C | 69% | 1018.5 hPa | - | - | - | - |
| 1787954731 | 20° C | 75% | 1018.3 hPa | - | - | - | - |
| 1787953831 | 19.44° C | 75% | 1018.5 hPa | - | - | - | - |
| 1787952930 | 20° C | 73% | 1018.4 hPa | - | - | - | - |
| 1787952030 | 20° C | 72% | 1018 hPa | - | - | - | - |
| 1787951130 | 20.56° C | 72% | 1017.9 hPa | - | - | - | - |
| 1787950230 | 20.56° C | 71% | 1017.6 hPa | - | - | - | - |
| 1787949330 | 20.56° C | 71% | 1017.5 hPa | - | - | - | - |
| 1787948429 | 20.56° C | 70% | 1017.2 hPa | - | - | - | - |
| 1787947529 | 20.56° C | 69% | 1016.9 hPa | - | - | - | - |
| 1787946632 | 21.11° C | 69% | 1016.8 hPa | - | - | - | - |
| 1787945732 | 21.11° C | 71% | 1016.8 hPa | - | - | - | - |
| 1787944832 | 21.67° C | 71% | 1016.7 hPa | - | - | - | - |
| 1787943932 | 21.67° C | 68% | 1016.4 hPa | - | - | - | - |
| 1787943031 | 21.67° C | 68% | 1016.5 hPa | - | - | - | - |
| 1787942131 | 22.22° C | 65% | 1016.2 hPa | - | - | - | - |
| 1787941231 | 22.22° C | 65% | 1015.9 hPa | - | - | - | - |
* Rain since midnight (hover to see other rain measurements)
** Current wind speed in m/s (hover to see current wind gust speed)